Time;durP1;ratioP1;P1;durP2;ratioP2;P2;SDS_P1;SDS_P2;PMS_P1;PMS_P2;Temp;Humidity;BMP_temperature;BMP_pressure;BME280_temperature;BME280_humidity;BME280_pressure;Samples;Min_cycle;Max_cycle;Signal;HPM_P1;HPM_P2
2021/08/31 00:01:13;;;;;;;12.30;10.70;;;13.40;99.90;;;;;;485580;245;28753;-70
2021/08/31 00:03:15;;;;;;;11.67;9.57;;;13.40;99.90;;;;;;485570;245;28179;-70
2021/08/31 00:05:16;;;;;;;12.90;9.90;;;13.30;99.90;;;;;;485549;245;28855;-70
2021/08/31 00:07:17;;;;;;;11.77;10.30;;;13.20;99.90;;;;;;485562;245;28158;-70
2021/08/31 00:09:20;;;;;;;16.27;12.53;;;13.20;99.90;;;;;;485547;245;28862;-70
2021/08/31 00:11:21;;;;;;;16.77;12.77;;;13.20;99.90;;;;;;485434;245;28667;-70
2021/08/31 00:13:22;;;;;;;21.10;14.87;;;13.10;99.90;;;;;;485534;245;28846;-70
2021/08/31 00:15:24;;;;;;;20.33;14.67;;;13.10;99.90;;;;;;485526;245;29757;-70
2021/08/31 00:17:25;;;;;;;18.93;14.77;;;13.10;99.90;;;;;;485583;245;28749;-70
2021/08/31 00:19:26;;;;;;;18.33;13.60;;;13.10;99.90;;;;;;485554;245;28313;-70
2021/08/31 00:21:27;;;;;;;19.23;13.87;;;13.00;99.90;;;;;;485534;245;28603;-69
2021/08/31 00:23:29;;;;;;;17.00;12.20;;;13.10;99.90;;;;;;485494;245;28662;-70
2021/08/31 00:25:31;;;;;;;15.80;12.90;;;13.10;99.90;;;;;;485543;245;28676;-69
2021/08/31 00:27:31;;;;;;;16.67;12.37;;;13.10;99.90;;;;;;485510;245;28597;-70
2021/08/31 00:29:32;;;;;;;13.97;11.73;;;13.00;99.90;;;;;;485575;245;28891;-69
2021/08/31 00:31:34;;;;;;;14.03;10.97;;;13.00;99.90;;;;;;485556;245;28962;-70
2021/08/31 00:33:35;;;;;;;12.77;10.33;;;13.10;99.90;;;;;;485548;245;28125;-70
2021/08/31 00:35:36;;;;;;;14.93;11.10;;;13.10;99.90;;;;;;485607;245;28476;-70
2021/08/31 00:37:37;;;;;;;11.67;9.67;;;13.10;99.90;;;;;;485604;245;28178;-69
2021/08/31 00:39:39;;;;;;;11.47;10.23;;;13.10;99.90;;;;;;485569;245;28539;-70
2021/08/31 00:41:40;;;;;;;11.27;9.70;;;13.10;99.90;;;;;;485510;245;28388;-70
2021/08/31 00:43:41;;;;;;;10.97;9.80;;;13.00;99.90;;;;;;485519;245;28305;-70
2021/08/31 00:45:43;;;;;;;9.67;8.23;;;12.90;99.90;;;;;;485564;245;28979;-70
2021/08/31 00:47:44;;;;;;;9.80;8.80;;;12.80;99.90;;;;;;485551;245;28564;-70
2021/08/31 00:49:47;;;;;;;10.07;8.50;;;12.70;99.90;;;;;;485547;245;29062;-70
2021/08/31 00:51:46;;;;;;;8.57;7.27;;;12.60;99.90;;;;;;485393;245;28842;-70
2021/08/31 00:53:48;;;;;;;9.03;7.50;;;12.60;99.90;;;;;;485558;245;28168;-70
2021/08/31 00:55:49;;;;;;;8.63;7.73;;;12.50;99.90;;;;;;485539;245;28405;-70
2021/08/31 00:57:50;;;;;;;9.60;8.03;;;12.40;99.90;;;;;;485543;245;28169;-70
2021/08/31 00:59:51;;;;;;;10.73;8.70;;;12.30;99.90;;;;;;485496;245;28367;-69
2021/08/31 01:01:53;;;;;;;10.60;9.50;;;12.40;99.90;;;;;;485399;245;28908;-70
2021/08/31 01:03:54;;;;;;;12.70;9.93;;;12.50;99.90;;;;;;485381;245;28426;-69
2021/08/31 01:05:55;;;;;;;11.60;9.50;;;12.80;99.90;;;;;;485327;245;29001;-70
2021/08/31 01:07:56;;;;;;;11.50;10.03;;;12.80;99.90;;;;;;485343;245;28596;-70
2021/08/31 01:09:58;;;;;;;12.70;10.43;;;12.80;99.90;;;;;;485514;245;28214;-70
2021/08/31 01:12:00;;;;;;;12.80;10.67;;;12.90;99.90;;;;;;485559;245;28552;-69
2021/08/31 01:14:00;;;;;;;12.40;10.70;;;12.90;99.90;;;;;;485530;245;28132;-69
2021/08/31 01:16:01;;;;;;;12.43;10.40;;;12.90;99.90;;;;;;485507;245;28463;-70
2021/08/31 01:18:03;;;;;;;14.43;11.20;;;12.80;99.90;;;;;;485509;245;28292;-69
2021/08/31 01:20:04;;;;;;;12.50;10.20;;;12.80;99.90;;;;;;485525;245;29040;-70
2021/08/31 01:22:05;;;;;;;13.93;9.83;;;12.80;99.90;;;;;;485546;245;28918;-69
2021/08/31 01:24:06;;;;;;;12.77;10.00;;;12.80;99.90;;;;;;485541;245;29007;-70
2021/08/31 01:26:08;;;;;;;11.30;8.83;;;12.80;99.90;;;;;;485550;245;28203;-69
2021/08/31 01:28:09;;;;;;;10.97;9.37;;;12.80;99.90;;;;;;485516;245;28511;-69
2021/08/31 01:30:10;;;;;;;10.13;8.60;;;12.70;99.90;;;;;;485506;245;28538;-70
2021/08/31 01:32:11;;;;;;;10.20;8.77;;;12.60;99.90;;;;;;485579;245;28331;-70
2021/08/31 01:34:13;;;;;;;11.70;8.70;;;12.60;99.90;;;;;;485540;245;28310;-70
2021/08/31 01:36:14;;;;;;;10.47;8.73;;;12.60;99.90;;;;;;485544;245;28309;-70
2021/08/31 01:38:15;;;;;;;8.70;7.80;;;12.50;99.90;;;;;;485511;245;28784;-70
2021/08/31 01:40:16;;;;;;;9.17;8.17;;;12.40;99.90;;;;;;485501;245;28991;-70
2021/08/31 01:42:18;;;;;;;9.00;8.10;;;12.30;99.90;;;;;;485563;245;28769;-69
2021/08/31 01:44:19;;;;;;;8.90;8.00;;;12.20;99.90;;;;;;485542;245;28160;-70
2021/08/31 01:46:21;;;;;;;7.73;6.93;;;;;;;;;;485558;245;28222;-70
2021/08/31 01:48:23;;;;;;;8.00;7.20;;;11.90;99.90;;;;;;477213;249;27303;-70
2021/08/31 01:50:24;;;;;;;9.47;7.70;;;11.90;99.90;;;;;;485542;245;28805;-69
2021/08/31 01:52:25;;;;;;;9.43;8.00;;;11.90;99.90;;;;;;485554;245;28645;-70
2021/08/31 01:54:26;;;;;;;12.43;9.43;;;12.00;99.90;;;;;;485526;245;28911;-70
2021/08/31 01:56:28;;;;;;;10.93;8.23;;;12.00;99.90;;;;;;485539;245;28212;-70
2021/08/31 01:58:29;;;;;;;11.87;8.90;;;12.00;99.90;;;;;;485545;245;28242;-70
2021/08/31 02:00:30;;;;;;;12.00;10.20;;;12.00;99.90;;;;;;485565;245;28342;-69
2021/08/31 02:02:31;;;;;;;15.90;11.87;;;12.10;99.90;;;;;;485574;245;28221;-70
2021/08/31 02:04:33;;;;;;;12.83;10.63;;;12.10;99.90;;;;;;485522;245;28321;-70
2021/08/31 02:06:34;;;;;;;14.80;11.30;;;12.10;99.90;;;;;;485540;245;28346;-70
2021/08/31 02:08:35;;;;;;;16.13;11.10;;;12.10;99.90;;;;;;485507;245;28788;-69
2021/08/31 02:10:36;;;;;;;14.80;11.10;;;12.10;99.90;;;;;;485566;245;28846;-70
2021/08/31 02:12:38;;;;;;;13.30;10.40;;;12.10;99.90;;;;;;485597;245;28193;-70
2021/08/31 02:14:39;;;;;;;16.73;10.70;;;12.10;99.90;;;;;;485584;245;28412;-70
2021/08/31 02:16:41;;;;;;;12.90;10.13;;;12.10;99.90;;;;;;485562;245;28236;-70
2021/08/31 02:18:41;;;;;;;16.87;12.57;;;12.10;99.90;;;;;;485535;245;28088;-70
2021/08/31 02:20:43;;;;;;;15.47;12.40;;;12.10;99.90;;;;;;485564;245;28393;-70
2021/08/31 02:22:44;;;;;;;14.00;11.03;;;12.20;99.90;;;;;;485538;245;28743;-70
2021/08/31 02:24:45;;;;;;;14.73;11.00;;;12.10;99.90;;;;;;485536;245;28748;-71
2021/08/31 02:26:48;;;;;;;13.43;10.73;;;12.10;99.90;;;;;;485515;245;28244;-70
2021/08/31 02:28:48;;;;;;;12.20;10.20;;;12.10;99.90;;;;;;485477;245;28179;-70
2021/08/31 02:30:49;;;;;;;11.40;9.83;;;12.00;99.90;;;;;;485553;245;28129;-70
2021/08/31 02:32:50;;;;;;;10.10;8.57;;;11.80;99.90;;;;;;485558;245;28214;-70
2021/08/31 02:34:51;;;;;;;9.70;8.30;;;11.50;99.90;;;;;;485521;245;28359;-70
2021/08/31 02:36:53;;;;;;;9.87;7.60;;;11.40;99.90;;;;;;485541;245;28172;-70
2021/08/31 02:38:54;;;;;;;7.87;7.07;;;11.20;99.90;;;;;;485567;245;28621;-69
2021/08/31 02:40:55;;;;;;;8.03;7.23;;;11.20;99.90;;;;;;485565;245;29552;-70
2021/08/31 02:42:56;;;;;;;7.10;6.17;;;11.20;99.90;;;;;;485557;245;28574;-69
2021/08/31 02:44:58;;;;;;;10.03;6.93;;;11.20;99.90;;;;;;485513;245;28276;-69
2021/08/31 02:46:59;;;;;;;7.07;6.37;;;11.20;99.90;;;;;;485534;245;28241;-69
2021/08/31 02:49:00;;;;;;;7.10;6.40;;;11.30;99.90;;;;;;485572;245;27911;-70
2021/08/31 02:51:02;;;;;;;6.33;5.50;;;11.30;99.90;;;;;;485554;245;28018;-69
2021/08/31 02:53:03;;;;;;;7.10;6.17;;;11.30;99.90;;;;;;485549;245;27996;-70
2021/08/31 02:55:04;;;;;;;7.07;6.37;;;11.40;99.90;;;;;;485535;245;28022;-69
2021/08/31 02:57:05;;;;;;;6.00;5.43;;;11.40;99.90;;;;;;485564;245;28193;-69
2021/08/31 02:59:07;;;;;;;5.80;5.30;;;11.50;99.90;;;;;;485612;245;28225;-70
2021/08/31 03:03:27;;;;;;;5.33;4.83;;;11.40;99.90;;;;;;485560;245;29366;-69
2021/08/31 03:05:29;;;;;;;6.60;5.50;;;11.30;99.90;;;;;;485572;245;28504;-69
2021/08/31 03:07:30;;;;;;;5.67;5.17;;;11.30;99.90;;;;;;485565;245;28800;-69
2021/08/31 03:09:31;;;;;;;5.90;5.30;;;11.30;99.90;;;;;;485569;245;28095;-70
2021/08/31 03:11:34;;;;;;;8.13;6.40;;;11.40;99.90;;;;;;485555;245;28104;-70
2021/08/31 03:13:34;;;;;;;8.63;6.90;;;11.40;99.90;;;;;;485514;245;28102;-70
2021/08/31 03:15:35;;;;;;;9.77;8.70;;;11.40;99.90;;;;;;485592;245;27978;-69
2021/08/31 03:17:36;;;;;;;10.03;8.47;;;11.50;99.90;;;;;;485567;245;28023;-70
2021/08/31 03:19:39;;;;;;;10.87;8.43;;;11.60;99.90;;;;;;485558;245;28119;-70
2021/08/31 03:21:39;;;;;;;13.00;9.17;;;11.70;99.90;;;;;;485424;245;28092;-70
2021/08/31 03:23:40;;;;;;;10.60;8.80;;;11.70;99.90;;;;;;485575;245;29347;-69
2021/08/31 03:25:41;;;;;;;11.73;9.17;;;11.80;99.90;;;;;;485580;245;28667;-70
2021/08/31 03:27:42;;;;;;;10.60;9.07;;;11.80;99.90;;;;;;485557;245;28730;-70
2021/08/31 03:29:44;;;;;;;11.63;9.37;;;11.70;99.90;;;;;;485584;245;28067;-69
2021/08/31 03:31:45;;;;;;;10.80;9.03;;;11.70;99.90;;;;;;485561;245;28038;-70
2021/08/31 03:33:46;;;;;;;10.40;7.97;;;11.70;99.90;;;;;;485586;245;28097;-70
2021/08/31 03:35:48;;;;;;;9.57;8.20;;;11.50;99.90;;;;;;485586;245;28116;-69
2021/08/31 03:37:49;;;;;;;9.53;7.97;;;11.40;99.90;;;;;;485537;245;28250;-69
2021/08/31 03:39:50;;;;;;;10.03;7.70;;;11.30;99.90;;;;;;485573;245;28263;-69
2021/08/31 03:41:51;;;;;;;7.97;7.10;;;11.20;99.90;;;;;;485562;245;28133;-69
2021/08/31 03:43:53;;;;;;;6.60;5.97;;;11.20;99.90;;;;;;485595;245;29152;-69
2021/08/31 03:45:54;;;;;;;7.50;6.63;;;11.30;99.90;;;;;;485562;245;28543;-70
2021/08/31 03:47:55;;;;;;;6.80;6.20;;;11.30;99.90;;;;;;485567;245;28574;-69
2021/08/31 03:49:56;;;;;;;6.60;5.97;;;11.30;99.90;;;;;;485567;245;28645;-69
2021/08/31 03:51:58;;;;;;;6.07;5.47;;;11.40;99.90;;;;;;485547;245;28214;-69
2021/08/31 03:53:59;;;;;;;7.10;6.40;;;11.50;99.90;;;;;;485603;245;28154;-69
2021/08/31 03:56:00;;;;;;;7.30;6.40;;;11.60;99.90;;;;;;485601;245;28178;-70
2021/08/31 03:58:05;;;;;;;7.10;6.40;;;11.60;99.90;;;;;;485595;245;28273;-69
2021/08/31 04:00:03;;;;;;;6.77;6.07;;;11.60;99.90;;;;;;485262;245;27865;-69
2021/08/31 04:02:04;;;;;;;7.50;6.60;;;11.60;99.90;;;;;;485582;245;28018;-69
2021/08/31 04:04:05;;;;;;;6.70;5.50;;;11.60;99.90;;;;;;485571;245;28342;-69
2021/08/31 04:06:06;;;;;;;6.50;5.90;;;11.50;99.90;;;;;;485580;245;28056;-69
2021/08/31 04:08:08;;;;;;;6.67;6.00;;;11.40;99.90;;;;;;485544;245;28943;-69
2021/08/31 04:10:09;;;;;;;6.00;5.40;;;11.30;99.90;;;;;;485555;245;28519;-69
2021/08/31 04:12:10;;;;;;;5.67;5.17;;;11.20;99.90;;;;;;485570;245;28423;-70
2021/08/31 04:14:11;;;;;;;6.73;5.90;;;11.10;99.90;;;;;;485589;245;28585;-69
2021/08/31 04:16:13;;;;;;;6.10;5.40;;;11.20;99.90;;;;;;485584;245;28156;-70
2021/08/31 04:18:14;;;;;;;5.67;5.00;;;11.20;99.90;;;;;;485561;245;28122;-69
2021/08/31 04:20:15;;;;;;;6.17;5.57;;;11.30;99.90;;;;;;485535;245;27904;-69
2021/08/31 04:22:16;;;;;;;5.90;5.30;;;11.30;99.90;;;;;;485606;245;27719;-69
2021/08/31 04:24:18;;;;;;;6.70;5.67;;;11.40;99.90;;;;;;485549;245;28031;-69
2021/08/31 04:26:19;;;;;;;7.60;6.30;;;11.30;99.90;;;;;;485557;245;28136;-69
2021/08/31 04:28:20;;;;;;;6.00;5.40;;;11.30;99.90;;;;;;485505;245;28118;-69
2021/08/31 04:30:21;;;;;;;6.43;5.80;;;11.40;99.90;;;;;;485543;245;28111;-69
2021/08/31 04:32:23;;;;;;;6.73;5.93;;;11.50;99.90;;;;;;485576;245;28270;-69
2021/08/31 04:34:24;;;;;;;7.70;6.20;;;11.40;99.90;;;;;;485558;245;28579;-69
2021/08/31 04:36:25;;;;;;;6.50;5.53;;;11.40;99.90;;;;;;485552;245;28530;-70
2021/08/31 04:38:26;;;;;;;7.17;5.83;;;11.40;99.90;;;;;;485538;245;28716;-70
2021/08/31 04:40:28;;;;;;;6.47;5.83;;;11.40;99.90;;;;;;485549;245;28204;-69
2021/08/31 04:42:29;;;;;;;7.00;5.93;;;11.40;99.90;;;;;;485585;245;27969;-69
2021/08/31 04:44:30;;;;;;;6.20;5.60;;;11.40;99.90;;;;;;485543;245;28010;-69
2021/08/31 04:46:31;;;;;;;6.50;5.90;;;11.50;99.90;;;;;;485543;245;27967;-69
2021/08/31 04:48:33;;;;;;;6.23;5.60;;;11.50;99.90;;;;;;485536;245;28223;-70
2021/08/31 04:50:34;;;;;;;6.07;5.53;;;11.50;99.90;;;;;;485534;245;28097;-69
2021/08/31 04:52:35;;;;;;;6.70;5.80;;;11.40;99.90;;;;;;485561;245;28021;-70
2021/08/31 04:54:36;;;;;;;6.43;5.90;;;11.50;99.90;;;;;;485563;245;28090;-70
2021/08/31 04:56:38;;;;;;;6.50;5.80;;;11.40;99.90;;;;;;485547;245;28137;-69
2021/08/31 04:58:39;;;;;;;6.57;5.97;;;11.40;99.90;;;;;;485550;245;28339;-69
2021/08/31 05:00:40;;;;;;;7.43;6.73;;;11.40;99.90;;;;;;485529;245;29364;-69
2021/08/31 05:02:41;;;;;;;7.33;6.60;;;11.40;99.90;;;;;;485574;245;28460;-69
2021/08/31 05:04:43;;;;;;;7.33;6.63;;;11.40;99.90;;;;;;485531;245;28041;-69
2021/08/31 05:06:44;;;;;;;10.50;8.60;;;11.40;99.90;;;;;;485555;245;27848;-70
2021/08/31 05:08:45;;;;;;;9.07;8.17;;;11.60;99.90;;;;;;485561;245;28028;-70
2021/08/31 05:10:48;;;;;;;12.00;9.63;;;11.80;99.90;;;;;;485548;245;28241;-70
2021/08/31 05:12:48;;;;;;;14.37;10.37;;;12.00;99.90;;;;;;485437;245;28216;-70
2021/08/31 05:14:49;;;;;;;13.63;10.57;;;12.10;99.90;;;;;;485557;245;28030;-70
2021/08/31 05:16:50;;;;;;;13.10;11.20;;;12.20;99.90;;;;;;485522;245;28070;-69
2021/08/31 05:18:51;;;;;;;13.60;10.87;;;12.20;99.90;;;;;;485520;245;28583;-70
2021/08/31 05:20:53;;;;;;;12.97;10.47;;;12.30;99.90;;;;;;485571;245;28702;-70
2021/08/31 05:22:54;;;;;;;13.27;10.40;;;12.30;99.90;;;;;;485560;245;27948;-70
2021/08/31 05:24:55;;;;;;;13.50;10.27;;;12.40;99.90;;;;;;485518;245;28201;-70
2021/08/31 05:26:56;;;;;;;11.17;9.50;;;12.40;99.90;;;;;;485531;245;28196;-70
2021/08/31 05:28:58;;;;;;;15.73;9.77;;;12.40;99.90;;;;;;485571;245;28207;-70
2021/08/31 05:30:59;;;;;;;12.57;10.20;;;12.50;99.90;;;;;;485593;245;28153;-69
2021/08/31 05:33:00;;;;;;;12.07;9.93;;;12.50;99.90;;;;;;485599;245;28810;-70
2021/08/31 05:35:01;;;;;;;15.07;11.10;;;12.50;99.90;;;;;;485558;245;28896;-70
2021/08/31 05:37:03;;;;;;;12.30;9.97;;;12.60;99.90;;;;;;485583;245;28352;-70
2021/08/31 05:39:06;;;;;;;12.90;9.87;;;12.60;99.90;;;;;;485595;245;28081;-69
2021/08/31 05:41:05;;;;;;;11.80;10.00;;;12.60;99.90;;;;;;485457;245;28218;-69
2021/08/31 05:43:06;;;;;;;11.00;9.23;;;12.60;99.90;;;;;;485557;245;28433;-69
2021/08/31 05:45:08;;;;;;;10.97;8.97;;;12.70;99.90;;;;;;485549;245;28352;-69
2021/08/31 05:47:09;;;;;;;10.97;9.13;;;12.70;99.90;;;;;;485550;245;28444;-70
2021/08/31 05:49:10;;;;;;;10.73;8.10;;;12.80;99.90;;;;;;485531;245;28500;-70
2021/08/31 05:51:13;;;;;;;11.43;9.00;;;12.80;99.90;;;;;;485574;245;28892;-69
2021/08/31 05:53:13;;;;;;;11.20;8.67;;;12.80;99.90;;;;;;485474;245;29069;-69
2021/08/31 05:55:14;;;;;;;9.60;8.17;;;12.80;99.90;;;;;;485539;245;28366;-70
2021/08/31 05:57:15;;;;;;;10.70;8.27;;;12.80;99.90;;;;;;485541;245;28149;-69
2021/08/31 05:59:16;;;;;;;10.73;8.80;;;12.80;99.90;;;;;;485560;245;28520;-70
2021/08/31 06:01:18;;;;;;;10.27;8.27;;;12.80;99.90;;;;;;485557;245;28476;-69
2021/08/31 06:03:19;;;;;;;10.30;8.47;;;12.80;99.90;;;;;;485522;245;28633;-70
2021/08/31 06:05:20;;;;;;;10.37;8.40;;;12.90;99.90;;;;;;485530;245;28656;-70
2021/08/31 06:07:24;;;;;;;14.60;10.57;;;12.80;99.90;;;;;;485475;245;28395;-70
2021/08/31 06:09:23;;;;;;;13.27;10.43;;;12.80;99.90;;;;;;485404;245;29327;-70
2021/08/31 06:11:24;;;;;;;12.53;10.80;;;12.90;99.90;;;;;;485527;245;28815;-70
2021/08/31 06:13:25;;;;;;;13.57;10.47;;;12.90;99.90;;;;;;485513;245;28329;-70
2021/08/31 06:15:27;;;;;;;13.70;8.90;;;13.00;99.90;;;;;;485540;245;28158;-69
2021/08/31 06:17:30;;;;;;;10.53;8.80;;;13.00;99.90;;;;;;485504;245;28594;-70
2021/08/31 06:19:29;;;;;;;11.60;9.60;;;13.10;99.90;;;;;;485429;245;28160;-70
2021/08/31 06:21:30;;;;;;;10.50;8.77;;;13.10;99.90;;;;;;485549;245;28576;-70
2021/08/31 06:23:32;;;;;;;10.63;9.20;;;13.10;99.90;;;;;;485533;245;28392;-70
2021/08/31 06:25:33;;;;;;;15.77;11.90;;;13.10;99.90;;;;;;485530;245;29344;-70
2021/08/31 06:27:34;;;;;;;14.53;10.90;;;13.00;99.90;;;;;;485522;245;29496;-70
2021/08/31 06:29:35;;;;;;;12.80;9.60;;;13.10;99.90;;;;;;485570;245;28275;-70
2021/08/31 06:31:37;;;;;;;12.70;10.80;;;13.10;99.90;;;;;;485584;245;28131;-70
2021/08/31 06:33:38;;;;;;;11.47;9.20;;;13.10;99.90;;;;;;485544;245;28103;-70
2021/08/31 06:35:39;;;;;;;11.60;9.67;;;13.20;99.90;;;;;;485569;245;28083;-70
2021/08/31 06:37:40;;;;;;;10.50;9.10;;;13.20;99.90;;;;;;485533;245;28844;-70
2021/08/31 06:39:42;;;;;;;9.07;8.10;;;13.20;99.90;;;;;;485221;241;28884;-70
2021/08/31 06:41:43;;;;;;;9.53;8.13;;;13.30;99.90;;;;;;485515;245;28586;-70
2021/08/31 06:43:45;;;;;;;10.33;8.90;;;13.30;99.90;;;;;;485478;245;29309;-70
2021/08/31 06:45:45;;;;;;;10.43;8.40;;;13.30;99.90;;;;;;485461;245;28647;-70
2021/08/31 06:47:47;;;;;;;10.90;9.40;;;13.40;99.90;;;;;;485513;245;28315;-70
2021/08/31 06:49:48;;;;;;;10.73;8.50;;;13.40;99.90;;;;;;485509;245;28523;-70
2021/08/31 06:51:49;;;;;;;9.47;8.07;;;13.50;99.90;;;;;;485496;245;28212;-70
2021/08/31 06:53:50;;;;;;;12.70;8.00;;;13.60;99.90;;;;;;485457;245;28830;-70
2021/08/31 06:55:52;;;;;;;11.83;9.07;;;13.80;99.90;;;;;;485509;245;28363;-70
2021/08/31 06:57:53;;;;;;;9.93;8.20;;;13.80;99.90;;;;;;485537;245;28451;-70
2021/08/31 06:59:54;;;;;;;10.53;7.80;;;13.90;99.90;;;;;;485535;245;28689;-71
2021/08/31 07:01:55;;;;;;;9.47;8.20;;;13.90;99.90;;;;;;485501;245;28851;-70
2021/08/31 07:03:57;;;;;;;9.00;7.83;;;14.00;99.90;;;;;;485480;245;28637;-69
2021/08/31 07:05:58;;;;;;;9.57;8.57;;;13.80;99.90;;;;;;485485;245;28337;-70
2021/08/31 07:07:59;;;;;;;8.77;7.60;;;13.90;99.90;;;;;;485545;245;28226;-69
2021/08/31 07:10:00;;;;;;;10.80;8.90;;;13.90;99.90;;;;;;485538;245;28266;-69
2021/08/31 07:12:02;;;;;;;9.10;7.57;;;13.90;99.90;;;;;;485523;245;28425;-69
2021/08/31 07:14:04;;;;;;;10.63;8.23;;;;;;;;;;485521;245;28279;-69
2021/08/31 07:16:05;;;;;;;9.67;7.50;;;14.00;99.90;;;;;;485522;245;26989;-69
2021/08/31 07:18:07;;;;;;;8.70;7.80;;;14.00;99.90;;;;;;485519;245;28173;-70
2021/08/31 07:20:08;;;;;;;8.43;7.63;;;14.00;99.90;;;;;;485517;245;28263;-72
2021/08/31 07:22:09;;;;;;;10.00;7.60;;;14.10;99.90;;;;;;485478;245;28195;-70
2021/08/31 07:24:10;;;;;;;8.93;7.20;;;14.10;99.90;;;;;;485493;245;28386;-71
2021/08/31 07:26:12;;;;;;;6.97;6.27;;;14.20;99.90;;;;;;485553;241;28262;-71
2021/08/31 07:28:13;;;;;;;8.37;7.00;;;14.30;99.90;;;;;;485596;245;28295;-71
2021/08/31 07:30:14;;;;;;;10.10;8.37;;;14.10;99.90;;;;;;485600;245;28470;-72
2021/08/31 07:32:16;;;;;;;9.03;7.60;;;14.10;99.90;;;;;;485557;245;28478;-72
2021/08/31 07:34:17;;;;;;;7.37;6.60;;;14.10;99.90;;;;;;485631;245;28975;-70
2021/08/31 07:36:21;;;;;;;7.77;6.97;;;14.10;99.90;;;;;;485594;245;28795;-69
2021/08/31 07:38:19;;;;;;;9.13;8.00;;;14.10;99.90;;;;;;485029;245;28764;-69
2021/08/31 07:40:20;;;;;;;12.13;8.77;;;13.90;99.90;;;;;;485552;245;28357;-71
2021/08/31 07:42:22;;;;;;;10.77;9.27;;;13.70;99.90;;;;;;485534;245;28444;-71
2021/08/31 07:44:23;;;;;;;10.60;8.70;;;13.60;99.90;;;;;;485592;245;28316;-70
2021/08/31 07:46:24;;;;;;;9.17;8.17;;;13.70;99.90;;;;;;485574;245;28373;-70
2021/08/31 07:48:25;;;;;;;8.83;7.10;;;13.90;99.90;;;;;;485569;245;28853;-71
2021/08/31 07:50:28;;;;;;;10.70;8.30;;;;;;;;;;485565;245;28897;-69
2021/08/31 07:52:29;;;;;;;8.60;7.80;;;13.80;99.90;;;;;;483776;241;26563;-69
2021/08/31 07:54:31;;;;;;;11.63;8.83;;;13.90;99.90;;;;;;484208;245;28488;-71
2021/08/31 07:56:32;;;;;;;10.53;7.67;;;13.90;99.90;;;;;;488844;242;28267;-71
2021/08/31 07:58:36;;;;;;;7.80;7.00;;;14.10;99.90;;;;;;489972;242;28798;-71
2021/08/31 08:00:39;;;;;;;10.03;7.73;;;14.30;99.90;;;;;;490069;242;28865;-71
2021/08/31 08:02:38;;;;;;;10.13;8.50;;;14.40;99.90;;;;;;489894;242;28855;-72
2021/08/31 08:04:39;;;;;;;9.90;7.87;;;14.50;99.90;;;;;;475899;250;28604;-71
2021/08/31 08:06:42;;;;;;;10.10;8.90;;;14.60;99.90;;;;;;475916;250;28452;-70
2021/08/31 08:08:42;;;;;;;9.23;7.80;;;14.60;99.90;;;;;;475856;250;28910;-69
2021/08/31 08:10:43;;;;;;;9.37;8.13;;;14.70;99.90;;;;;;475911;250;28547;-69
2021/08/31 08:12:44;;;;;;;10.07;6.93;;;14.80;99.90;;;;;;475908;250;28569;-70
2021/08/31 08:14:46;;;;;;;8.17;7.30;;;14.90;99.90;;;;;;475882;250;28562;-70
2021/08/31 08:16:47;;;;;;;7.20;6.50;;;15.00;99.90;;;;;;475895;250;29014;-69
2021/08/31 08:18:48;;;;;;;8.00;7.00;;;15.00;99.90;;;;;;475885;250;29508;-70
2021/08/31 08:20:49;;;;;;;8.27;7.07;;;14.90;99.90;;;;;;475863;250;29457;-69
2021/08/31 08:22:51;;;;;;;11.60;9.00;;;14.90;99.90;;;;;;475805;250;29389;-69
2021/08/31 08:24:52;;;;;;;7.47;6.33;;;14.80;99.90;;;;;;475652;250;28619;-72
2021/08/31 08:26:57;;;;;;;7.00;6.23;;;14.80;99.90;;;;;;475722;250;28999;-71
2021/08/31 08:28:54;;;;;;;8.70;6.90;;;14.80;99.90;;;;;;475658;250;28561;-72
2021/08/31 08:30:56;;;;;;;8.10;6.37;;;14.80;99.90;;;;;;475887;250;28578;-70
2021/08/31 08:32:57;;;;;;;10.20;7.90;;;14.90;99.90;;;;;;475900;250;28474;-69
2021/08/31 08:34:58;;;;;;;9.13;6.80;;;14.80;99.90;;;;;;475926;250;28519;-69
2021/08/31 08:36:59;;;;;;;10.70;7.10;;;14.90;99.90;;;;;;475913;250;28592;-69
2021/08/31 08:39:01;;;;;;;8.43;6.50;;;15.20;99.90;;;;;;475932;250;28881;-69
2021/08/31 08:41:06;;;;;;;7.13;6.43;;;15.40;99.90;;;;;;475926;250;29504;-69
2021/08/31 08:43:03;;;;;;;9.27;6.47;;;15.40;99.90;;;;;;475410;250;30088;-71
2021/08/31 08:45:04;;;;;;;9.00;6.47;;;15.60;99.90;;;;;;475887;250;29377;-70
2021/08/31 08:47:06;;;;;;;7.00;6.13;;;15.90;99.90;;;;;;475936;250;29402;-71
2021/08/31 08:49:07;;;;;;;6.77;6.07;;;15.80;99.90;;;;;;475945;250;28888;-71
2021/08/31 08:51:08;;;;;;;7.57;5.90;;;16.00;99.90;;;;;;475935;250;29003;-71
2021/08/31 08:53:09;;;;;;;6.50;5.77;;;15.90;99.90;;;;;;475891;250;28865;-71
2021/08/31 08:55:11;;;;;;;6.30;5.43;;;15.80;99.90;;;;;;475935;250;28885;-71
2021/08/31 08:57:12;;;;;;;6.77;5.80;;;16.00;99.90;;;;;;475938;250;28940;-71
2021/08/31 08:59:13;;;;;;;6.60;5.63;;;16.20;99.90;;;;;;475906;250;28899;-71
2021/08/31 09:01:14;;;;;;;5.13;4.63;;;16.40;99.90;;;;;;475923;250;28932;-71
2021/08/31 09:03:16;;;;;;;6.10;5.50;;;16.30;99.90;;;;;;475899;250;29028;-71
2021/08/31 09:05:17;;;;;;;5.20;4.80;;;16.30;99.90;;;;;;475927;250;29305;-69
2021/08/31 09:07:18;;;;;;;6.80;5.60;;;16.30;99.90;;;;;;475932;250;29517;-69
2021/08/31 09:09:19;;;;;;;10.40;6.30;;;16.30;99.90;;;;;;476263;244;29391;-70
2021/08/31 09:11:21;;;;;;;7.07;5.60;;;16.10;99.90;;;;;;478004;246;29457;-69
2021/08/31 09:13:22;;;;;;;7.23;5.50;;;16.20;99.90;;;;;;488985;243;28802;-70
2021/08/31 09:15:23;;;;;;;7.20;5.40;;;16.40;99.90;;;;;;486656;241;28872;-71
2021/08/31 09:17:24;;;;;;;5.73;5.13;;;16.50;99.90;;;;;;486519;244;28920;-71
2021/08/31 09:19:26;;;;;;;6.10;4.83;;;16.70;99.90;;;;;;486502;244;28968;-71
2021/08/31 09:21:27;;;;;;;6.07;5.47;;;16.90;99.90;;;;;;486429;244;29033;-71
2021/08/31 09:23:28;;;;;;;5.37;4.87;;;17.00;99.90;;;;;;486537;244;28907;-71
2021/08/31 09:25:29;;;;;;;5.70;5.20;;;17.00;99.90;;;;;;486723;244;28863;-69
2021/08/31 09:27:31;;;;;;;5.53;4.77;;;17.20;99.90;;;;;;486712;244;28967;-71
2021/08/31 09:29:32;;;;;;;5.40;4.73;;;17.10;99.90;;;;;;486663;244;29271;-71
2021/08/31 09:31:33;;;;;;;4.97;4.47;;;17.30;99.90;;;;;;486656;244;29387;-70
2021/08/31 09:33:34;;;;;;;6.10;4.93;;;17.20;99.90;;;;;;486691;244;29312;-70
2021/08/31 09:35:36;;;;;;;6.47;5.60;;;17.20;99.90;;;;;;486697;244;29343;-69
2021/08/31 09:37:38;;;;;;;6.23;5.20;;;16.90;99.90;;;;;;486693;244;28910;-69
2021/08/31 09:39:38;;;;;;;5.57;4.73;;;16.90;99.90;;;;;;486630;244;28973;-71
2021/08/31 09:41:39;;;;;;;5.10;4.60;;;17.10;99.90;;;;;;486677;244;28876;-72
2021/08/31 09:43:41;;;;;;;5.60;5.10;;;17.10;99.90;;;;;;486511;244;28894;-71
2021/08/31 09:45:42;;;;;;;5.80;4.70;;;17.00;99.90;;;;;;486675;244;28931;-71
2021/08/31 09:47:43;;;;;;;5.63;4.80;;;17.10;99.90;;;;;;486696;244;29002;-69
2021/08/31 09:49:44;;;;;;;6.73;5.20;;;16.70;99.90;;;;;;486650;244;28859;-69
2021/08/31 09:51:46;;;;;;;5.23;4.20;;;16.50;99.90;;;;;;486671;244;28962;-70
2021/08/31 09:53:47;;;;;;;4.53;4.13;;;16.70;99.90;;;;;;486701;244;29376;-70
2021/08/31 09:55:48;;;;;;;5.50;4.63;;;16.90;99.90;;;;;;486708;244;29435;-72
2021/08/31 09:57:49;;;;;;;5.50;5.00;;;17.10;99.90;;;;;;486684;244;29378;-71
2021/08/31 09:59:51;;;;;;;4.73;4.27;;;17.00;99.90;;;;;;486671;244;29301;-74
2021/08/31 10:01:53;;;;;;;4.90;4.30;;;17.20;99.90;;;;;;486667;244;28951;-71
2021/08/31 10:03:53;;;;;;;4.90;4.13;;;17.30;99.90;;;;;;486687;244;28969;-71
2021/08/31 10:05:54;;;;;;;5.40;4.00;;;17.20;99.90;;;;;;486735;244;28853;-71
2021/08/31 10:07:56;;;;;;;4.67;4.27;;;17.40;99.90;;;;;;486702;244;28924;-71
2021/08/31 10:09:57;;;;;;;5.23;4.40;;;17.50;99.90;;;;;;486699;244;28849;-71
2021/08/31 10:11:59;;;;;;;4.90;4.40;;;17.50;99.90;;;;;;486677;244;28886;-70
2021/08/31 10:13:59;;;;;;;4.60;4.20;;;17.60;99.90;;;;;;486722;244;28931;-71
2021/08/31 10:16:01;;;;;;;6.20;4.33;;;17.60;99.90;;;;;;486706;244;28949;-70
2021/08/31 10:18:02;;;;;;;4.40;4.00;;;17.70;99.90;;;;;;486417;244;29367;-70
2021/08/31 10:20:03;;;;;;;4.70;4.20;;;17.70;99.90;;;;;;486368;244;29393;-70
2021/08/31 10:22:04;;;;;;;5.63;4.20;;;17.30;99.90;;;;;;486580;244;29351;-72
2021/08/31 10:24:06;;;;;;;4.60;4.20;;;17.20;99.90;;;;;;486748;244;29507;-72
2021/08/31 10:26:07;;;;;;;4.70;3.80;;;17.30;99.90;;;;;;486748;244;28838;-71
2021/08/31 10:28:08;;;;;;;4.37;3.97;;;17.20;99.90;;;;;;486692;244;28897;-70